Home > Products > Valid Products > TAF

000
FTUS44 KMRX 221736
TAFTYS
TAF
KTYS 221736Z 2218/2318 03010G18KT P6SM SCT035
     FM230000 03004KT P6SM SKC
     FM231500 02006KT P6SM SKC=



000
FTUS44 KMRX 221736
TAFCHA
TAF
KCHA 221736Z 2218/2318 02010G18KT P6SM FEW040
     FM230000 02003KT P6SM SKC
     FM231500 02006KT P6SM SKC=



000
FTUS44 KMRX 221736
TAFTRI
TAF
KTRI 221736Z 2218/2318 35008KT P6SM BKN030
      TEMPO 2218/2222 OVC025
     FM222300 32003KT P6SM OVC025
     FM231200 00000KT P6SM SCT020
     FM231400 30004KT P6SM SKC=



000
FTUS44 KMRX 221736
TAFTYS
TAF
KTYS 221736Z 2218/2318 03010G18KT P6SM SCT035
     FM230000 03004KT P6SM SKC
     FM231500 02006KT P6SM SKC=



000
FTUS44 KMRX 221736
TAFCHA
TAF
KCHA 221736Z 2218/2318 02010G18KT P6SM FEW040
     FM230000 02003KT P6SM SKC
     FM231500 02006KT P6SM SKC=



000
FTUS44 KMRX 221736
TAFTRI
TAF
KTRI 221736Z 2218/2318 35008KT P6SM BKN030
      TEMPO 2218/2222 OVC025
     FM222300 32003KT P6SM OVC025
     FM231200 00000KT P6SM SCT020
     FM231400 30004KT P6SM SKC=



000
FTUS44 KMRX 221120
TAFTRI
TAF
KTRI 221120Z 2212/2312 33006KT P6SM OVC040
      TEMPO 2212/2215 BKN025
     FM221600 31009KT P6SM BKN040
     FM222200 33003KT P6SM SCT050
     FM230600 00000KT 4SM BR SCT250=



000
FTUS44 KMRX 221120
TAFTYS
TAF
KTYS 221120Z 2212/2312 36005KT P6SM FEW050
     FM221400 02009KT P6SM SKC
     FM230000 02003KT P6SM SKC=



000
FTUS44 KMRX 221120
TAFCHA
TAF
KCHA 221120Z 2212/2312 01004KT P6SM SKC
     FM221400 02009KT P6SM SKC
     FM230000 02003KT P6SM SKC=



000
FTUS44 KMRX 220808 AAA
TAFTRI
TAF AMD
KTRI 220808Z 2208/2306 33006KT P6SM OVC030
      TEMPO 2211/2215 BKN015
     FM221600 31009KT P6SM BKN040
     FM222200 33003KT P6SM SCT050=



000
FTUS44 KMRX 220520
TAFCHA
TAF
KCHA 220520Z 2206/2306 01004KT P6SM SKC
     FM221400 02009KT P6SM SKC
     FM230000 02003KT P6SM SKC=



000
FTUS44 KMRX 220520
TAFTRI
TAF
KTRI 220520Z 2206/2306 33006KT P6SM BKN050
     FM220800 31005KT P6SM BKN035
      TEMPO 2211/2215 BKN025
     FM221600 31009KT P6SM BKN040
     FM222200 33003KT P6SM SCT050=



000
FTUS44 KMRX 220520
TAFTYS
TAF
KTYS 220520Z 2206/2306 36005KT P6SM SCT060
     FM221400 02009KT P6SM SKC
     FM230000 02003KT P6SM SKC=



000
FTUS44 KMRX 220520
TAFTRI
TAF
KTRI 220520Z 2206/2306 33006KT P6SM BKN050
     FM220800 31005KT P6SM BKN035
      TEMPO 2211/2215 BKN025
     FM221600 31009KT P6SM BKN040
     FM222200 33003KT P6SM SCT050=



000
FTUS44 KMRX 220520
TAFCHA
TAF
KCHA 220520Z 2206/2306 01004KT P6SM SKC
     FM221400 02009KT P6SM SKC
     FM230000 02003KT P6SM SKC=



000
FTUS44 KMRX 220520
TAFTYS
TAF
KTYS 220520Z 2206/2306 36005KT P6SM SCT060
     FM221400 02009KT P6SM SKC
     FM230000 02003KT P6SM SKC=



000
FTUS44 KMRX 212320
TAFTYS
TAF
KTYS 212320Z 2200/2224 36005KT P6SM SCT060
     FM221400 02007KT P6SM SCT060=



000
FTUS44 KMRX 212320
TAFTRI
TAF
KTRI 212320Z 2200/2224 33009KT P6SM BKN050
     FM220800 33005KT P6SM BKN035
      TEMPO 2211/2215 BKN025
     FM221600 32007KT P6SM BKN040=



000
FTUS44 KMRX 212320
TAFCHA
TAF
KCHA 212320Z 2200/2224 36004KT P6SM SKC
     FM221400 02009KT P6SM SKC=



000
FTUS44 KMRX 212320
TAFTRI
TAF
KTRI 212320Z 2200/2224 33009KT P6SM BKN050
     FM220800 33005KT P6SM BKN035
      TEMPO 2211/2215 BKN025
     FM221600 32007KT P6SM BKN040=



000
FTUS44 KMRX 212320
TAFCHA
TAF
KCHA 212320Z 2200/2224 36004KT P6SM SKC
     FM221400 02009KT P6SM SKC=



000
FTUS44 KMRX 212320
TAFTYS
TAF
KTYS 212320Z 2200/2224 36005KT P6SM SCT060
     FM221400 02007KT P6SM SCT060=



000
FTUS44 KMRX 211810 AAA
TAFTRI
TAF AMD
KTRI 211810Z 2118/2218 29011KT P6SM VCSH BKN045
     FM220200 30005KT P6SM BKN035
     FM220700 29003KT P6SM BKN025
     FM221400 30007KT P6SM BKN040=



000
FTUS44 KMRX 211744
TAFCHA
TAF
KCHA 211744Z 2118/2218 34009KT P6SM SCT050
     FM220000 36004KT P6SM FEW050
     FM220600 01003KT P6SM SKC
     FM221400 01011KT P6SM SKC=



000
FTUS44 KMRX 211744
TAFTYS
TAF
KTYS 211744Z 2118/2218 29009KT P6SM SCT050
     FM220000 35005KT P6SM SCT040
     FM221400 02007KT P6SM SCT070=



000
FTUS44 KMRX 211744
TAFTRI
TAF
KTRI 211744Z 2118/2218 27004KT P6SM VCSH BKN045
     FM220200 30005KT P6SM BKN035
     FM220700 29003KT P6SM BKN025
     FM221400 30007KT P6SM BKN040=



000
FTUS44 KMRX 211744
TAFCHA
TAF
KCHA 211744Z 2118/2218 34009KT P6SM SCT050
     FM220000 36004KT P6SM FEW050
     FM220600 01003KT P6SM SKC
     FM221400 01011KT P6SM SKC=



000
FTUS44 KMRX 211744
TAFTRI
TAF
KTRI 211744Z 2118/2218 27004KT P6SM VCSH BKN045
     FM220200 30005KT P6SM BKN035
     FM220700 29003KT P6SM BKN025
     FM221400 30007KT P6SM BKN040=



000
FTUS44 KMRX 211744
TAFTYS
TAF
KTYS 211744Z 2118/2218 29009KT P6SM SCT050
     FM220000 35005KT P6SM SCT040
     FM221400 02007KT P6SM SCT070=



000
FTUS44 KMRX 211305 AAB
TAFTRI
TAF AMD
KTRI 211305Z 2113/2212 27004KT P6SM BKN025
     FM211600 29010KT P6SM VCSH BKN035
     FM220200 30005KT P6SM BKN035
     FM220700 29003KT P6SM BKN025=



000
FTUS44 KMRX 211305 AAB
TAFTRI
TAF AMD
KTRI 211305Z 2113/2212 27004KT P6SM BKN025
     FM211600 29010KT P6SM VCSH BKN035
     FM220200 30005KT P6SM BKN035
     FM220700 29003KT P6SM BKN025=



000
FTUS44 KMRX 211208 AAA
TAFTRI
TAF AMD
KTRI 211208Z 2112/2212 00000KT 6SM BR BKN028
     FM211300 VRB03KT P6SM SCT040
     FM211600 29010KT P6SM VCSH BKN040
     FM220200 30005KT P6SM BKN035
     FM220700 29003KT P6SM BKN025=



000
FTUS44 KMRX 211208 AAA
TAFTRI
TAF AMD
KTRI 211208Z 2112/2212 00000KT 6SM BR BKN028
     FM211300 VRB03KT P6SM SCT040
     FM211600 29010KT P6SM VCSH BKN040
     FM220200 30005KT P6SM BKN035
     FM220700 29003KT P6SM BKN025=



000
FTUS44 KMRX 211208 AAA
TAFTRI
TAF AMD
KTRI 211208Z 2112/2212 00000KT 6SM BR BKN028
     FM211300 VRB03KT P6SM SCT040
     FM211600 29010KT P6SM VCSH BKN040
     FM220200 30005KT P6SM BKN035
     FM220700 29003KT P6SM BKN025=



000
FTUS44 KMRX 211208 AAA
TAFTRI
TAF AMD
KTRI 211208Z 2112/2212 00000KT 6SM BR BKN028
     FM211300 VRB03KT P6SM SCT040
     FM211600 29010KT P6SM VCSH BKN040
     FM220200 30005KT P6SM BKN035
     FM220700 29003KT P6SM BKN025=



000
FTUS44 KMRX 211127
TAFCHA
TAF
KCHA 211127Z 2112/2212 34003KT P6SM FEW060
     FM211600 34009KT P6SM SCT050
     FM220000 36004KT P6SM FEW050
     FM220600 01003KT P6SM SKC=



000
FTUS44 KMRX 211127
TAFTYS
TAF
KTYS 211127Z 2112/2212 23005KT P6SM SCT080
     FM211400 26008KT P6SM SCT050
     FM211700 30010KT P6SM BKN050
     FM220000 35005KT P6SM BKN035=



000
FTUS44 KMRX 211127
TAFTYS
TAF
KTYS 211127Z 2112/2212 23005KT P6SM SCT080
     FM211400 26008KT P6SM SCT050
     FM211700 30010KT P6SM BKN050
     FM220000 35005KT P6SM BKN035=



000
FTUS44 KMRX 211127
TAFCHA
TAF
KCHA 211127Z 2112/2212 34003KT P6SM FEW060
     FM211600 34009KT P6SM SCT050
     FM220000 36004KT P6SM FEW050
     FM220600 01003KT P6SM SKC=



000
FTUS44 KMRX 211127
TAFTRI
TAF
KTRI 211127Z 2112/2212 00000KT 5SM BR BKN035
     FM211400 VRB03KT P6SM SCT040
     FM211600 29010KT P6SM VCSH BKN040
     FM220200 30005KT P6SM BKN035
     FM220700 29003KT P6SM BKN025=



000
FTUS44 KMRX 211127
TAFTRI
TAF
KTRI 211127Z 2112/2212 00000KT 5SM BR BKN035
     FM211400 VRB03KT P6SM SCT040
     FM211600 29010KT P6SM VCSH BKN040
     FM220200 30005KT P6SM BKN035
     FM220700 29003KT P6SM BKN025=



000
FTUS44 KMRX 211127
TAFCHA
TAF
KCHA 211127Z 2112/2212 34003KT P6SM FEW060
     FM211600 34009KT P6SM SCT050
     FM220000 36004KT P6SM FEW050
     FM220600 01003KT P6SM SKC=



000
FTUS44 KMRX 211127
TAFTYS
TAF
KTYS 211127Z 2112/2212 23005KT P6SM SCT080
     FM211400 26008KT P6SM SCT050
     FM211700 30010KT P6SM BKN050
     FM220000 35005KT P6SM BKN035=



000
FTUS44 KMRX 211127
TAFTYS
TAF
KTYS 211127Z 2112/2212 23005KT P6SM SCT080
     FM211400 26008KT P6SM SCT050
     FM211700 30010KT P6SM BKN050
     FM220000 35005KT P6SM BKN035=



000
FTUS44 KMRX 211127
TAFTRI
TAF
KTRI 211127Z 2112/2212 00000KT 5SM BR BKN035
     FM211400 VRB03KT P6SM SCT040
     FM211600 29010KT P6SM VCSH BKN040
     FM220200 30005KT P6SM BKN035
     FM220700 29003KT P6SM BKN025=



000
FTUS44 KMRX 211127
TAFCHA
TAF
KCHA 211127Z 2112/2212 34003KT P6SM FEW060
     FM211600 34009KT P6SM SCT050
     FM220000 36004KT P6SM FEW050
     FM220600 01003KT P6SM SKC=



000
FTUS44 KMRX 211127
TAFTRI
TAF
KTRI 211127Z 2112/2212 00000KT 5SM BR BKN035
     FM211400 VRB03KT P6SM SCT040
     FM211600 29010KT P6SM VCSH BKN040
     FM220200 30005KT P6SM BKN035
     FM220700 29003KT P6SM BKN025=



000
FTUS44 KMRX 210802 AAA
TAFTRI
TAF AMD
KTRI 210802Z 2108/2206 VRB03KT 5SM BR SCT050
      TEMPO 2108/2110 3SM -RA BR OVC025
     FM211600 29010KT P6SM BKN040
     FM220200 30005KT P6SM BKN035=



000
FTUS44 KMRX 210802 AAA
TAFTRI
TAF AMD
KTRI 210802Z 2108/2206 VRB03KT 5SM BR SCT050
      TEMPO 2108/2110 3SM -RA BR OVC025
     FM211600 29010KT P6SM BKN040
     FM220200 30005KT P6SM BKN035=



000
FTUS44 KMRX 210530
TAFTRI
TAF
KTRI 210530Z 2106/2206 00000KT P6SM BKN060
     FM210800 25005KT P6SM SCT050
     FM211600 29010KT P6SM BKN040
     FM220200 30005KT P6SM BKN035=



000
FTUS44 KMRX 210530
TAFCHA
TAF
KCHA 210530Z 2106/2206 34003KT P6SM FEW060
     FM211600 34009KT P6SM SCT050
     FM220000 36004KT P6SM SCT050=



000
FTUS44 KMRX 210530
TAFTYS
TAF
KTYS 210530Z 2106/2206 23005KT P6SM SCT070
     FM211400 26008KT P6SM SCT050
     FM211700 30010KT P6SM BKN050
     FM220000 35005KT P6SM BKN035=



000
FTUS44 KMRX 202320
TAFCHA
TAF
KCHA 202320Z 2100/2124 23005KT P6SM SCT050 BKN120
     FM210900 VRB03KT P6SM SKC
     FM211400 34010KT P6SM SCT050=



000
FTUS44 KMRX 202320
TAFTRI
TAF
KTRI 202320Z 2100/2124 23005KT P6SM BKN080
     FM210400 24005KT P6SM SCT040 SCT080
     FM210800 25005KT P6SM BKN020
     FM211400 27008KT P6SM BKN030
     FM211800 29010KT P6SM BKN040=



000
FTUS44 KMRX 202320
TAFTYS
TAF
KTYS 202320Z 2100/2124 25005KT P6SM SCT040 BKN100
     FM210200 24005KT P6SM SKC
     FM211400 26008KT P6SM SCT040
     FM211700 30010KT P6SM BKN050=



000
FTUS44 KMRX 202320
TAFTRI
TAF
KTRI 202320Z 2100/2124 23005KT P6SM BKN080
     FM210400 24005KT P6SM SCT040 SCT080
     FM210800 25005KT P6SM BKN020
     FM211400 27008KT P6SM BKN030
     FM211800 29010KT P6SM BKN040=



000
FTUS44 KMRX 202320
TAFTYS
TAF
KTYS 202320Z 2100/2124 25005KT P6SM SCT040 BKN100
     FM210200 24005KT P6SM SKC
     FM211400 26008KT P6SM SCT040
     FM211700 30010KT P6SM BKN050=



000
FTUS44 KMRX 202320
TAFCHA
TAF
KCHA 202320Z 2100/2124 23005KT P6SM SCT050 BKN120
     FM210900 VRB03KT P6SM SKC
     FM211400 34010KT P6SM SCT050=



000
FTUS44 KMRX 201738
TAFTYS
TAF
KTYS 201738Z 2018/2118 22010KT P6SM SCT040 BKN200
     FM210200 24005KT P6SM BKN050
     FM211400 27007KT P6SM SCT040 SCT250
     FM211700 33010KT P6SM FEW040 SCT250=



000
FTUS44 KMRX 201738
TAFTRI
TAF
KTRI 201738Z 2018/2118 23012KT P6SM BKN040 BKN250
      TEMPO 2018/2019 23015G25KT
     FM210200 24005KT P6SM BKN050
     FM210700 VRB03KT 3SM BR BKN020
     FM211400 27008KT P6SM SCT040 BKN150
     FM211700 29010KT P6SM SCT040 BKN150=



000
FTUS44 KMRX 201738
TAFCHA
TAF
KCHA 201738Z 2018/2118 23005KT P6SM SCT040 BKN150
     FM210200 29004KT P6SM BKN050
     FM210700 32004KT P6SM SCT040
     FM211400 34010KT P6SM SCT250=



000
FTUS44 KMRX 201738
TAFTYS
TAF
KTYS 201738Z 2018/2118 22010KT P6SM SCT040 BKN200
     FM210200 24005KT P6SM BKN050
     FM211400 27007KT P6SM SCT040 SCT250
     FM211700 33010KT P6SM FEW040 SCT250=



000
FTUS44 KMRX 201738
TAFCHA
TAF
KCHA 201738Z 2018/2118 23005KT P6SM SCT040 BKN150
     FM210200 29004KT P6SM BKN050
     FM210700 32004KT P6SM SCT040
     FM211400 34010KT P6SM SCT250=



000
FTUS44 KMRX 201738
TAFTRI
TAF
KTRI 201738Z 2018/2118 23012KT P6SM BKN040 BKN250
      TEMPO 2018/2019 23015G25KT
     FM210200 24005KT P6SM BKN050
     FM210700 VRB03KT 3SM BR BKN020
     FM211400 27008KT P6SM SCT040 BKN150
     FM211700 29010KT P6SM SCT040 BKN150=



000
FTUS44 KMRX 201308 AAB
TAFTYS
TAF AMD
KTYS 201308Z 2013/2112 VRB04KT P6SM SCT250
      TEMPO 2013/2014 5SM BR SCT002
     FM201600 23007KT P6SM BKN150
     FM202000 23009KT P6SM OVC100
     FM210200 23005KT P6SM BKN050
     FM210700 24003KT 5SM BR SCT040=



000
FTUS44 KMRX 201308 AAB
TAFTYS
TAF AMD
KTYS 201308Z 2013/2112 VRB04KT P6SM SCT250
      TEMPO 2013/2014 5SM BR SCT002
     FM201600 23007KT P6SM BKN150
     FM202000 23009KT P6SM OVC100
     FM210200 23005KT P6SM BKN050
     FM210700 24003KT 5SM BR SCT040=



000
FTUS44 KMRX 201239 AAA
TAFTYS
TAF AMD
KTYS 201239Z 2013/2112 VRB03KT 1/4SM FG VV001
     FM201330 22004KT 5SM BR SCT010 BKN250
     FM201600 23007KT P6SM BKN150
     FM202000 23009KT P6SM OVC100
     FM210200 23005KT P6SM BKN050
     FM210700 24003KT 5SM BR SCT040=



000
FTUS44 KMRX 201239 AAA
TAFTYS
TAF AMD
KTYS 201239Z 2013/2112 VRB03KT 1/4SM FG VV001
     FM201330 22004KT 5SM BR SCT010 BKN250
     FM201600 23007KT P6SM BKN150
     FM202000 23009KT P6SM OVC100
     FM210200 23005KT P6SM BKN050
     FM210700 24003KT 5SM BR SCT040=



000
FTUS44 KMRX 201124
TAFTRI
TAF
KTRI 201124Z 2012/2112 00000KT P6SM BKN250
     FM201600 23008KT P6SM BKN150
     FM202000 23009KT P6SM OVC080
     FM210200 VRB03KT P6SM BKN050
     FM210700 00000KT 3SM BR BKN020=



000
FTUS44 KMRX 201124
TAFCHA
TAF
KCHA 201124Z 2012/2112 00000KT P6SM SCT005 BKN250
     FM201600 20005KT P6SM SCT050 BKN150
     FM210200 20005KT P6SM BKN050
     FM210700 00000KT P6SM SCT040=



000
FTUS44 KMRX 201124
TAFTYS
TAF
KTYS 201124Z 2012/2112 VRB03KT 1/2SM FG OVC001
      TEMPO 2012/2013 2SM BR BKN005
     FM201330 22004KT 5SM BR SCT010 BKN250
     FM201600 23007KT P6SM BKN150
     FM202000 23009KT P6SM OVC100
     FM210200 23005KT P6SM BKN050
     FM210700 24003KT 5SM BR SCT040=



000
FTUS44 KMRX 201124
TAFCHA
TAF
KCHA 201124Z 2012/2112 00000KT P6SM SCT005 BKN250
     FM201600 20005KT P6SM SCT050 BKN150
     FM210200 20005KT P6SM BKN050
     FM210700 00000KT P6SM SCT040=



000
FTUS44 KMRX 201124
TAFTYS
TAF
KTYS 201124Z 2012/2112 VRB03KT 1/2SM FG OVC001
      TEMPO 2012/2013 2SM BR BKN005
     FM201330 22004KT 5SM BR SCT010 BKN250
     FM201600 23007KT P6SM BKN150
     FM202000 23009KT P6SM OVC100
     FM210200 23005KT P6SM BKN050
     FM210700 24003KT 5SM BR SCT040=



000
FTUS44 KMRX 201124
TAFTRI
TAF
KTRI 201124Z 2012/2112 00000KT P6SM BKN250
     FM201600 23008KT P6SM BKN150
     FM202000 23009KT P6SM OVC080
     FM210200 VRB03KT P6SM BKN050
     FM210700 00000KT 3SM BR BKN020=



000
FTUS44 KMRX 201027 AAC
TAFTYS
TAF AMD
KTYS 201027Z 2010/2106 VRB03KT P6SM SCT005 BKN250
      TEMPO 2010/2012 1SM BR OVC001
     FM201600 23007KT P6SM BKN150
     FM202000 23009KT P6SM OVC100
     FM210200 23005KT P6SM BKN050=



000
FTUS44 KMRX 201027 AAC
TAFTYS
TAF AMD
KTYS 201027Z 2010/2106 VRB03KT P6SM SCT005 BKN250
      TEMPO 2010/2012 1SM BR OVC001
     FM201600 23007KT P6SM BKN150
     FM202000 23009KT P6SM OVC100
     FM210200 23005KT P6SM BKN050=



000
FTUS44 KMRX 201009 AAB
TAFTYS
TAF AMD
KTYS 201009Z 2010/2106 VRB03KT P6SM SCT005 BKN250
     FM201600 23007KT P6SM BKN150
     FM202000 23009KT P6SM OVC100
     FM210200 23005KT P6SM BKN050=



000
FTUS44 KMRX 201009 AAB
TAFTYS
TAF AMD
KTYS 201009Z 2010/2106 VRB03KT P6SM SCT005 BKN250
     FM201600 23007KT P6SM BKN150
     FM202000 23009KT P6SM OVC100
     FM210200 23005KT P6SM BKN050=



000
FTUS44 KMRX 201009 AAB
TAFTYS
TAF AMD
KTYS 201009Z 2010/2106 VRB03KT P6SM SCT005 BKN250
     FM201600 23007KT P6SM BKN150
     FM202000 23009KT P6SM OVC100
     FM210200 23005KT P6SM BKN050=



000
FTUS44 KMRX 200903 AAA
TAFTYS
TAF AMD
KTYS 200903Z 2009/2106 00000KT P6SM SCT005 BKN250
      TEMPO 2009/2011 5SM BR BKN004
     FM201600 23007KT P6SM BKN150
     FM202000 23009KT P6SM OVC100
     FM210200 23005KT P6SM BKN050=



000
FTUS44 KMRX 200903 AAA
TAFTYS
TAF AMD
KTYS 200903Z 2009/2106 00000KT P6SM SCT005 BKN250
      TEMPO 2009/2011 5SM BR BKN004
     FM201600 23007KT P6SM BKN150
     FM202000 23009KT P6SM OVC100
     FM210200 23005KT P6SM BKN050=



000
FTUS44 KMRX 200524
TAFTYS
TAF
KTYS 200524Z 2006/2106 00000KT P6SM BKN250
     FM201600 23007KT P6SM BKN150
     FM202000 23009KT P6SM OVC100
     FM210200 23005KT P6SM BKN050=



000
FTUS44 KMRX 200524
TAFTRI
TAF
KTRI 200524Z 2006/2106 00000KT P6SM BKN250
     FM201600 23008KT P6SM BKN150
     FM202000 23009KT P6SM OVC080
     FM210200 VRB03KT P6SM BKN050=



000
FTUS44 KMRX 200524
TAFTYS
TAF
KTYS 200524Z 2006/2106 00000KT P6SM BKN250
     FM201600 23007KT P6SM BKN150
     FM202000 23009KT P6SM OVC100
     FM210200 23005KT P6SM BKN050=



000
FTUS44 KMRX 200524
TAFTRI
TAF
KTRI 200524Z 2006/2106 00000KT P6SM BKN250
     FM201600 23008KT P6SM BKN150
     FM202000 23009KT P6SM OVC080
     FM210200 VRB03KT P6SM BKN050=



000
FTUS44 KMRX 200524
TAFCHA
TAF
KCHA 200524Z 2006/2106 00000KT P6SM BKN250
     FM201600 20005KT P6SM SCT050 BKN150
     FM210200 20005KT P6SM BKN050=



000
FTUS44 KMRX 200524
TAFCHA
TAF
KCHA 200524Z 2006/2106 00000KT P6SM BKN250
     FM201600 20005KT P6SM SCT050 BKN150
     FM210200 20005KT P6SM BKN050=



000
FTUS44 KMRX 200524
TAFCHA
TAF
KCHA 200524Z 2006/2106 00000KT P6SM BKN250
     FM201600 20005KT P6SM SCT050 BKN150
     FM210200 20005KT P6SM BKN050=



000
FTUS44 KMRX 200524
TAFTRI
TAF
KTRI 200524Z 2006/2106 00000KT P6SM BKN250
     FM201600 23008KT P6SM BKN150
     FM202000 23009KT P6SM OVC080
     FM210200 VRB03KT P6SM BKN050=



000
FTUS44 KMRX 200524
TAFTYS
TAF
KTYS 200524Z 2006/2106 00000KT P6SM BKN250
     FM201600 23007KT P6SM BKN150
     FM202000 23009KT P6SM OVC100
     FM210200 23005KT P6SM BKN050=



000
FTUS44 KMRX 192320
TAFCHA
TAF
KCHA 192320Z 2000/2024 VRB03KT P6SM BKN250
     FM201600 20005KT P6SM SCT050 BKN150=



000
FTUS44 KMRX 192320
TAFTRI
TAF
KTRI 192320Z 2000/2024 VRB03KT P6SM BKN250
     FM201600 23008KT P6SM BKN150
     FM202000 23009KT P6SM OVC080=



000
FTUS44 KMRX 192320
TAFTRI
TAF
KTRI 192320Z 2000/2024 VRB03KT P6SM BKN250
     FM201600 23008KT P6SM BKN150
     FM202000 23009KT P6SM OVC080=



000
FTUS44 KMRX 192320
TAFCHA
TAF
KCHA 192320Z 2000/2024 VRB03KT P6SM BKN250
     FM201600 20005KT P6SM SCT050 BKN150=



000
FTUS44 KMRX 192320
TAFTYS
TAF
KTYS 192320Z 2000/2024 05003KT P6SM BKN250
     FM201600 23007KT P6SM BKN150
     FM202000 23009KT P6SM OVC100=



000
FTUS44 KMRX 192320
TAFTYS
TAF
KTYS 192320Z 2000/2024 05003KT P6SM BKN250
     FM201600 23007KT P6SM BKN150
     FM202000 23009KT P6SM OVC100=



000
FTUS44 KMRX 192320
TAFTRI
TAF
KTRI 192320Z 2000/2024 VRB03KT P6SM BKN250
     FM201600 23008KT P6SM BKN150
     FM202000 23009KT P6SM OVC080=



000
FTUS44 KMRX 192320
TAFCHA
TAF
KCHA 192320Z 2000/2024 VRB03KT P6SM BKN250
     FM201600 20005KT P6SM SCT050 BKN150=



000
FTUS44 KMRX 192320
TAFTYS
TAF
KTYS 192320Z 2000/2024 05003KT P6SM BKN250
     FM201600 23007KT P6SM BKN150
     FM202000 23009KT P6SM OVC100=



000
FTUS44 KMRX 192320
TAFCHA
TAF
KCHA 192320Z 2000/2024 VRB03KT P6SM BKN250
     FM201600 20005KT P6SM SCT050 BKN150=



000
FTUS44 KMRX 192320
TAFTRI
TAF
KTRI 192320Z 2000/2024 VRB03KT P6SM BKN250
     FM201600 23008KT P6SM BKN150
     FM202000 23009KT P6SM OVC080=



000
FTUS44 KMRX 192320
TAFTYS
TAF
KTYS 192320Z 2000/2024 05003KT P6SM BKN250
     FM201600 23007KT P6SM BKN150
     FM202000 23009KT P6SM OVC100=



    US Dept of Commerce
    National Oceanic and Atmospheric Administration
    National Weather Service
    1325 East West Highway
    Silver Spring, MD 20910
    Page Author: NWS Internet Services Team
Disclaimer
Information Quality
Credits
Glossary
Privacy Policy
Freedom of Information Act (FOIA)
About Us
Career Opportunities